sensor_id;sensor_type;location;lat;lon;timestamp;P1;durP1;ratioP1;P2;durP2;ratioP2
16101;SDS011;56411;52.964;10.540;2022-11-23T00:02:24;44.57;;;23.50;;
16101;SDS011;56411;52.964;10.540;2022-11-23T00:04:52;44.30;;;23.30;;
16101;SDS011;56411;52.964;10.540;2022-11-23T00:07:19;46.37;;;23.60;;
16101;SDS011;56411;52.964;10.540;2022-11-23T00:09:46;47.60;;;23.13;;
16101;SDS011;56411;52.964;10.540;2022-11-23T00:12:13;49.87;;;23.50;;
16101;SDS011;56411;52.964;10.540;2022-11-23T00:14:40;47.10;;;22.43;;
16101;SDS011;56411;52.964;10.540;2022-11-23T00:17:07;48.47;;;22.67;;
16101;SDS011;56411;52.964;10.540;2022-11-23T00:19:36;45.33;;;22.53;;
16101;SDS011;56411;52.964;10.540;2022-11-23T00:22:03;43.57;;;22.27;;
16101;SDS011;56411;52.964;10.540;2022-11-23T00:24:31;46.33;;;23.40;;
16101;SDS011;56411;52.964;10.540;2022-11-23T00:26:58;43.43;;;21.60;;
16101;SDS011;56411;52.964;10.540;2022-11-23T00:29:25;44.60;;;22.60;;
16101;SDS011;56411;52.964;10.540;2022-11-23T00:31:52;42.97;;;22.27;;
16101;SDS011;56411;52.964;10.540;2022-11-23T00:34:19;41.77;;;22.13;;
16101;SDS011;56411;52.964;10.540;2022-11-23T00:36:47;42.80;;;21.43;;
16101;SDS011;56411;52.964;10.540;2022-11-23T00:39:16;38.93;;;21.00;;
16101;SDS011;56411;52.964;10.540;2022-11-23T00:41:43;40.67;;;20.97;;
16101;SDS011;56411;52.964;10.540;2022-11-23T00:44:10;37.17;;;19.83;;
16101;SDS011;56411;52.964;10.540;2022-11-23T00:46:37;41.00;;;19.63;;
16101;SDS011;56411;52.964;10.540;2022-11-23T00:49:04;37.97;;;20.57;;
16101;SDS011;56411;52.964;10.540;2022-11-23T00:51:32;37.17;;;19.73;;
16101;SDS011;56411;52.964;10.540;2022-11-23T00:54:01;40.83;;;20.17;;
16101;SDS011;56411;52.964;10.540;2022-11-23T00:56:29;37.83;;;18.97;;
16101;SDS011;56411;52.964;10.540;2022-11-23T00:58:59;37.97;;;19.60;;
16101;SDS011;56411;52.964;10.540;2022-11-23T01:01:27;35.27;;;19.30;;
16101;SDS011;56411;52.964;10.540;2022-11-23T01:03:57;35.60;;;19.30;;
16101;SDS011;56411;52.964;10.540;2022-11-23T01:06:26;37.57;;;20.10;;
16101;SDS011;56411;52.964;10.540;2022-11-23T01:08:55;36.07;;;20.33;;
16101;SDS011;56411;52.964;10.540;2022-11-23T01:11:26;35.63;;;18.93;;
16101;SDS011;56411;52.964;10.540;2022-11-23T01:13:54;36.07;;;18.53;;
16101;SDS011;56411;52.964;10.540;2022-11-23T01:16:22;36.37;;;18.77;;
16101;SDS011;56411;52.964;10.540;2022-11-23T01:18:51;40.53;;;18.57;;
16101;SDS011;56411;52.964;10.540;2022-11-23T01:21:18;35.43;;;19.10;;
16101;SDS011;56411;52.964;10.540;2022-11-23T01:23:45;37.17;;;18.60;;
16101;SDS011;56411;52.964;10.540;2022-11-23T01:26:12;37.77;;;19.13;;
16101;SDS011;56411;52.964;10.540;2022-11-23T01:28:41;35.10;;;18.20;;
16101;SDS011;56411;52.964;10.540;2022-11-23T01:31:09;33.17;;;18.00;;
16101;SDS011;56411;52.964;10.540;2022-11-23T01:33:39;33.63;;;17.97;;
16101;SDS011;56411;52.964;10.540;2022-11-23T01:36:07;32.67;;;18.00;;
16101;SDS011;56411;52.964;10.540;2022-11-23T01:38:35;34.03;;;18.33;;
16101;SDS011;56411;52.964;10.540;2022-11-23T01:41:03;32.87;;;17.93;;
16101;SDS011;56411;52.964;10.540;2022-11-23T01:43:30;35.17;;;18.27;;
16101;SDS011;56411;52.964;10.540;2022-11-23T01:45:59;34.43;;;18.20;;
16101;SDS011;56411;52.964;10.540;2022-11-23T01:48:29;35.30;;;17.63;;
16101;SDS011;56411;52.964;10.540;2022-11-23T01:50:59;35.40;;;18.10;;
16101;SDS011;56411;52.964;10.540;2022-11-23T01:53:30;33.93;;;17.63;;
16101;SDS011;56411;52.964;10.540;2022-11-23T01:56:00;37.13;;;18.17;;
16101;SDS011;56411;52.964;10.540;2022-11-23T01:58:30;35.10;;;17.23;;
16101;SDS011;56411;52.964;10.540;2022-11-23T02:01:02;34.97;;;17.83;;
16101;SDS011;56411;52.964;10.540;2022-11-23T02:03:29;35.27;;;17.17;;
16101;SDS011;56411;52.964;10.540;2022-11-23T02:06:00;31.53;;;16.77;;
16101;SDS011;56411;52.964;10.540;2022-11-23T02:08:29;33.83;;;17.30;;
16101;SDS011;56411;52.964;10.540;2022-11-23T02:10:57;36.43;;;17.90;;
16101;SDS011;56411;52.964;10.540;2022-11-23T02:13:26;31.60;;;17.57;;
16101;SDS011;56411;52.964;10.540;2022-11-23T02:15:55;34.27;;;17.67;;
16101;SDS011;56411;52.964;10.540;2022-11-23T02:18:25;34.47;;;17.30;;
16101;SDS011;56411;52.964;10.540;2022-11-23T02:20:55;32.67;;;17.50;;
16101;SDS011;56411;52.964;10.540;2022-11-23T02:23:29;32.37;;;17.43;;
16101;SDS011;56411;52.964;10.540;2022-11-23T02:26:04;31.87;;;17.20;;
16101;SDS011;56411;52.964;10.540;2022-11-23T02:28:35;33.53;;;17.50;;
16101;SDS011;56411;52.964;10.540;2022-11-23T02:31:05;32.73;;;17.53;;
16101;SDS011;56411;52.964;10.540;2022-11-23T02:33:35;33.50;;;17.27;;
16101;SDS011;56411;52.964;10.540;2022-11-23T02:38:59;30.87;;;15.47;;
16101;SDS011;56411;52.964;10.540;2022-11-23T02:41:35;31.80;;;16.97;;
16101;SDS011;56411;52.964;10.540;2022-11-23T02:44:03;31.80;;;16.10;;
16101;SDS011;56411;52.964;10.540;2022-11-23T02:46:34;30.90;;;16.10;;
16101;SDS011;56411;52.964;10.540;2022-11-23T02:49:01;29.63;;;16.30;;
16101;SDS011;56411;52.964;10.540;2022-11-23T02:51:28;30.77;;;15.67;;
16101;SDS011;56411;52.964;10.540;2022-11-23T02:53:55;30.70;;;16.47;;
16101;SDS011;56411;52.964;10.540;2022-11-23T02:56:22;29.03;;;16.37;;
16101;SDS011;56411;52.964;10.540;2022-11-23T02:58:51;32.13;;;16.13;;
16101;SDS011;56411;52.964;10.540;2022-11-23T03:01:18;33.93;;;16.77;;
16101;SDS011;56411;52.964;10.540;2022-11-23T03:03:45;33.53;;;16.97;;
16101;SDS011;56411;52.964;10.540;2022-11-23T03:06:13;30.20;;;15.60;;
16101;SDS011;56411;52.964;10.540;2022-11-23T03:08:40;30.63;;;15.60;;
16101;SDS011;56411;52.964;10.540;2022-11-23T03:11:07;30.97;;;15.70;;
16101;SDS011;56411;52.964;10.540;2022-11-23T03:13:34;27.80;;;15.53;;
16101;SDS011;56411;52.964;10.540;2022-11-23T03:16:02;29.47;;;15.23;;
16101;SDS011;56411;52.964;10.540;2022-11-23T03:18:30;31.20;;;16.13;;
16101;SDS011;56411;52.964;10.540;2022-11-23T03:21:00;27.63;;;14.80;;
16101;SDS011;56411;52.964;10.540;2022-11-23T03:23:28;33.27;;;15.50;;
16101;SDS011;56411;52.964;10.540;2022-11-23T03:25:56;28.57;;;15.03;;
16101;SDS011;56411;52.964;10.540;2022-11-23T03:28:23;28.97;;;15.30;;
16101;SDS011;56411;52.964;10.540;2022-11-23T03:30:51;27.63;;;15.67;;
16101;SDS011;56411;52.964;10.540;2022-11-23T03:33:19;32.67;;;16.20;;
16101;SDS011;56411;52.964;10.540;2022-11-23T03:35:48;27.87;;;14.93;;
16101;SDS011;56411;52.964;10.540;2022-11-23T03:38:15;26.87;;;15.60;;
16101;SDS011;56411;52.964;10.540;2022-11-23T03:40:43;31.77;;;14.93;;
16101;SDS011;56411;52.964;10.540;2022-11-23T03:43:10;27.73;;;15.10;;
16101;SDS011;56411;52.964;10.540;2022-11-23T03:45:38;29.10;;;15.60;;
16101;SDS011;56411;52.964;10.540;2022-11-23T03:48:05;27.87;;;14.93;;
16101;SDS011;56411;52.964;10.540;2022-11-23T03:50:34;29.13;;;14.73;;
16101;SDS011;56411;52.964;10.540;2022-11-23T03:53:01;27.87;;;14.30;;
16101;SDS011;56411;52.964;10.540;2022-11-23T03:55:30;27.53;;;15.40;;
16101;SDS011;56411;52.964;10.540;2022-11-23T03:57:57;33.07;;;15.80;;
16101;SDS011;56411;52.964;10.540;2022-11-23T04:00:25;29.80;;;15.27;;
16101;SDS011;56411;52.964;10.540;2022-11-23T04:02:52;27.23;;;14.83;;
16101;SDS011;56411;52.964;10.540;2022-11-23T04:05:19;26.40;;;14.00;;
16101;SDS011;56411;52.964;10.540;2022-11-23T04:07:50;27.77;;;14.13;;
16101;SDS011;56411;52.964;10.540;2022-11-23T04:10:18;26.43;;;14.20;;
16101;SDS011;56411;52.964;10.540;2022-11-23T04:12:48;31.27;;;14.57;;
16101;SDS011;56411;52.964;10.540;2022-11-23T04:15:15;25.53;;;13.50;;
16101;SDS011;56411;52.964;10.540;2022-11-23T04:17:43;28.03;;;14.27;;
16101;SDS011;56411;52.964;10.540;2022-11-23T04:20:10;28.77;;;14.20;;
16101;SDS011;56411;52.964;10.540;2022-11-23T04:22:38;25.03;;;13.43;;
16101;SDS011;56411;52.964;10.540;2022-11-23T04:25:08;24.97;;;13.27;;
16101;SDS011;56411;52.964;10.540;2022-11-23T04:27:35;25.67;;;13.60;;
16101;SDS011;56411;52.964;10.540;2022-11-23T04:30:03;25.73;;;12.63;;
16101;SDS011;56411;52.964;10.540;2022-11-23T04:32:30;25.07;;;13.20;;
16101;SDS011;56411;52.964;10.540;2022-11-23T04:34:57;25.07;;;12.80;;
16101;SDS011;56411;52.964;10.540;2022-11-23T04:37:24;27.13;;;12.30;;
16101;SDS011;56411;52.964;10.540;2022-11-23T04:39:51;24.47;;;12.53;;
16101;SDS011;56411;52.964;10.540;2022-11-23T04:42:20;21.97;;;12.13;;
16101;SDS011;56411;52.964;10.540;2022-11-23T04:44:47;26.73;;;13.53;;
16101;SDS011;56411;52.964;10.540;2022-11-23T04:47:14;24.87;;;12.40;;
16101;SDS011;56411;52.964;10.540;2022-11-23T04:49:42;23.50;;;12.60;;
16101;SDS011;56411;52.964;10.540;2022-11-23T04:52:08;25.00;;;13.07;;
16101;SDS011;56411;52.964;10.540;2022-11-23T04:54:36;24.93;;;12.43;;
16101;SDS011;56411;52.964;10.540;2022-11-23T04:57:03;25.50;;;12.50;;
16101;SDS011;56411;52.964;10.540;2022-11-23T04:59:31;26.80;;;13.40;;
16101;SDS011;56411;52.964;10.540;2022-11-23T05:01:59;25.37;;;11.90;;
16101;SDS011;56411;52.964;10.540;2022-11-23T05:04:26;25.27;;;13.17;;
16101;SDS011;56411;52.964;10.540;2022-11-23T05:06:53;27.07;;;13.63;;
16101;SDS011;56411;52.964;10.540;2022-11-23T05:09:20;25.00;;;13.03;;
16101;SDS011;56411;52.964;10.540;2022-11-23T05:11:47;25.27;;;12.47;;
16101;SDS011;56411;52.964;10.540;2022-11-23T05:14:14;24.67;;;12.97;;
16101;SDS011;56411;52.964;10.540;2022-11-23T05:16:43;23.43;;;11.93;;
16101;SDS011;56411;52.964;10.540;2022-11-23T05:19:10;21.53;;;12.40;;
16101;SDS011;56411;52.964;10.540;2022-11-23T05:21:37;22.33;;;11.87;;
16101;SDS011;56411;52.964;10.540;2022-11-23T05:24:04;23.20;;;11.83;;
16101;SDS011;56411;52.964;10.540;2022-11-23T05:26:31;25.57;;;12.23;;
16101;SDS011;56411;52.964;10.540;2022-11-23T05:28:59;26.10;;;12.00;;
16101;SDS011;56411;52.964;10.540;2022-11-23T05:31:26;22.77;;;11.53;;
16101;SDS011;56411;52.964;10.540;2022-11-23T05:33:54;22.10;;;11.93;;
16101;SDS011;56411;52.964;10.540;2022-11-23T05:36:22;23.63;;;11.40;;
16101;SDS011;56411;52.964;10.540;2022-11-23T05:38:49;24.73;;;12.37;;
16101;SDS011;56411;52.964;10.540;2022-11-23T05:41:16;23.50;;;12.50;;
16101;SDS011;56411;52.964;10.540;2022-11-23T05:43:43;21.47;;;11.73;;
16101;SDS011;56411;52.964;10.540;2022-11-23T05:46:10;22.43;;;12.20;;
16101;SDS011;56411;52.964;10.540;2022-11-23T05:48:38;22.73;;;12.20;;
16101;SDS011;56411;52.964;10.540;2022-11-23T05:51:08;22.90;;;11.90;;
16101;SDS011;56411;52.964;10.540;2022-11-23T05:53:36;25.83;;;12.37;;
16101;SDS011;56411;52.964;10.540;2022-11-23T05:56:03;22.03;;;11.63;;
16101;SDS011;56411;52.964;10.540;2022-11-23T05:58:30;22.40;;;12.23;;
16101;SDS011;56411;52.964;10.540;2022-11-23T06:00:58;22.37;;;11.80;;
16101;SDS011;56411;52.964;10.540;2022-11-23T06:03:26;22.07;;;11.00;;
16101;SDS011;56411;52.964;10.540;2022-11-23T06:05:53;21.27;;;11.87;;
16101;SDS011;56411;52.964;10.540;2022-11-23T06:08:21;26.47;;;12.33;;
16101;SDS011;56411;52.964;10.540;2022-11-23T06:10:51;22.77;;;11.90;;
16101;SDS011;56411;52.964;10.540;2022-11-23T06:13:18;22.73;;;11.20;;
16101;SDS011;56411;52.964;10.540;2022-11-23T06:15:45;26.67;;;12.40;;
16101;SDS011;56411;52.964;10.540;2022-11-23T06:18:12;21.97;;;11.67;;
16101;SDS011;56411;52.964;10.540;2022-11-23T06:20:40;24.67;;;11.87;;
16101;SDS011;56411;52.964;10.540;2022-11-23T06:23:07;25.27;;;11.80;;
16101;SDS011;56411;52.964;10.540;2022-11-23T06:25:35;21.03;;;11.40;;
16101;SDS011;56411;52.964;10.540;2022-11-23T06:28:03;22.57;;;11.50;;
16101;SDS011;56411;52.964;10.540;2022-11-23T06:30:34;24.27;;;12.00;;
16101;SDS011;56411;52.964;10.540;2022-11-23T06:33:02;19.83;;;11.20;;
16101;SDS011;56411;52.964;10.540;2022-11-23T06:35:30;23.90;;;11.17;;
16101;SDS011;56411;52.964;10.540;2022-11-23T06:37:57;21.03;;;11.27;;
16101;SDS011;56411;52.964;10.540;2022-11-23T06:40:24;23.03;;;11.57;;
16101;SDS011;56411;52.964;10.540;2022-11-23T06:42:57;23.77;;;11.77;;
16101;SDS011;56411;52.964;10.540;2022-11-23T06:45:25;22.37;;;11.80;;
16101;SDS011;56411;52.964;10.540;2022-11-23T06:47:53;23.27;;;11.80;;
16101;SDS011;56411;52.964;10.540;2022-11-23T06:50:20;23.43;;;12.00;;
16101;SDS011;56411;52.964;10.540;2022-11-23T06:52:52;22.47;;;11.60;;
16101;SDS011;56411;52.964;10.540;2022-11-23T06:55:19;22.80;;;11.70;;
16101;SDS011;56411;52.964;10.540;2022-11-23T06:57:46;23.40;;;11.30;;
16101;SDS011;56411;52.964;10.540;2022-11-23T07:00:18;22.10;;;12.03;;
16101;SDS011;56411;52.964;10.540;2022-11-23T07:02:49;25.80;;;11.67;;
16101;SDS011;56411;52.964;10.540;2022-11-23T07:05:17;20.87;;;11.30;;
16101;SDS011;56411;52.964;10.540;2022-11-23T07:07:45;21.70;;;11.70;;
16101;SDS011;56411;52.964;10.540;2022-11-23T07:10:12;23.47;;;12.17;;
16101;SDS011;56411;52.964;10.540;2022-11-23T07:12:39;23.50;;;12.17;;
16101;SDS011;56411;52.964;10.540;2022-11-23T07:15:07;21.70;;;11.23;;
16101;SDS011;56411;52.964;10.540;2022-11-23T07:17:38;19.37;;;11.33;;
16101;SDS011;56411;52.964;10.540;2022-11-23T07:20:06;24.10;;;11.40;;
16101;SDS011;56411;52.964;10.540;2022-11-23T07:22:35;23.17;;;11.50;;
16101;SDS011;56411;52.964;10.540;2022-11-23T07:25:03;23.70;;;11.27;;
16101;SDS011;56411;52.964;10.540;2022-11-23T07:27:30;24.80;;;12.53;;
16101;SDS011;56411;52.964;10.540;2022-11-23T07:29:57;22.17;;;11.93;;
16101;SDS011;56411;52.964;10.540;2022-11-23T07:32:24;25.53;;;12.80;;
16101;SDS011;56411;52.964;10.540;2022-11-23T07:34:53;23.80;;;12.17;;
16101;SDS011;56411;52.964;10.540;2022-11-23T07:37:20;23.57;;;12.30;;
16101;SDS011;56411;52.964;10.540;2022-11-23T07:39:47;25.47;;;12.70;;
16101;SDS011;56411;52.964;10.540;2022-11-23T07:42:16;22.63;;;12.83;;
16101;SDS011;56411;52.964;10.540;2022-11-23T07:44:43;20.57;;;11.57;;
16101;SDS011;56411;52.964;10.540;2022-11-23T07:47:10;20.97;;;11.73;;
16101;SDS011;56411;52.964;10.540;2022-11-23T07:49:38;24.63;;;12.10;;
16101;SDS011;56411;52.964;10.540;2022-11-23T07:52:06;24.37;;;12.50;;
16101;SDS011;56411;52.964;10.540;2022-11-23T07:54:34;20.87;;;11.57;;
16101;SDS011;56411;52.964;10.540;2022-11-23T07:57:01;20.97;;;11.93;;
16101;SDS011;56411;52.964;10.540;2022-11-23T07:59:28;26.47;;;12.40;;
16101;SDS011;56411;52.964;10.540;2022-11-23T08:01:56;23.13;;;11.63;;
16101;SDS011;56411;52.964;10.540;2022-11-23T08:04:23;24.43;;;12.13;;
16101;SDS011;56411;52.964;10.540;2022-11-23T08:06:51;24.30;;;11.77;;
16101;SDS011;56411;52.964;10.540;2022-11-23T08:09:20;24.27;;;12.30;;
16101;SDS011;56411;52.964;10.540;2022-11-23T08:11:48;22.80;;;11.73;;
16101;SDS011;56411;52.964;10.540;2022-11-23T08:14:15;20.60;;;11.60;;
16101;SDS011;56411;52.964;10.540;2022-11-23T08:16:42;22.37;;;10.97;;
16101;SDS011;56411;52.964;10.540;2022-11-23T08:19:09;22.87;;;11.33;;
16101;SDS011;56411;52.964;10.540;2022-11-23T08:21:37;19.33;;;11.03;;
16101;SDS011;56411;52.964;10.540;2022-11-23T08:24:04;22.50;;;10.93;;
16101;SDS011;56411;52.964;10.540;2022-11-23T08:26:33;19.13;;;10.43;;
16101;SDS011;56411;52.964;10.540;2022-11-23T08:29:00;22.57;;;12.13;;
16101;SDS011;56411;52.964;10.540;2022-11-23T08:31:28;27.07;;;16.33;;
16101;SDS011;56411;52.964;10.540;2022-11-23T08:33:55;20.33;;;11.50;;
16101;SDS011;56411;52.964;10.540;2022-11-23T08:36:22;19.43;;;10.73;;
16101;SDS011;56411;52.964;10.540;2022-11-23T08:38:50;17.70;;;10.33;;
16101;SDS011;56411;52.964;10.540;2022-11-23T08:41:18;20.60;;;10.73;;
16101;SDS011;56411;52.964;10.540;2022-11-23T08:43:47;18.87;;;10.87;;
16101;SDS011;56411;52.964;10.540;2022-11-23T08:46:14;23.30;;;11.40;;
16101;SDS011;56411;52.964;10.540;2022-11-23T08:48:42;21.20;;;10.77;;
16101;SDS011;56411;52.964;10.540;2022-11-23T08:51:09;17.60;;;10.30;;
16101;SDS011;56411;52.964;10.540;2022-11-23T08:53:37;23.70;;;10.87;;
16101;SDS011;56411;52.964;10.540;2022-11-23T08:56:04;19.50;;;11.17;;
16101;SDS011;56411;52.964;10.540;2022-11-23T08:58:32;19.47;;;9.90;;
16101;SDS011;56411;52.964;10.540;2022-11-23T09:01:05;23.13;;;10.57;;
16101;SDS011;56411;52.964;10.540;2022-11-23T09:03:33;18.80;;;9.73;;
16101;SDS011;56411;52.964;10.540;2022-11-23T09:06:00;19.40;;;10.10;;
16101;SDS011;56411;52.964;10.540;2022-11-23T09:08:27;375.83;;;63.33;;
16101;SDS011;56411;52.964;10.540;2022-11-23T09:10:57;145.03;;;34.23;;
16101;SDS011;56411;52.964;10.540;2022-11-23T09:13:26;92.17;;;23.67;;
16101;SDS011;56411;52.964;10.540;2022-11-23T09:15:55;23.27;;;10.57;;
16101;SDS011;56411;52.964;10.540;2022-11-23T09:18:28;22.10;;;9.93;;
16101;SDS011;56411;52.964;10.540;2022-11-23T09:20:55;19.03;;;9.60;;
16101;SDS011;56411;52.964;10.540;2022-11-23T09:23:23;18.27;;;9.83;;
16101;SDS011;56411;52.964;10.540;2022-11-23T09:25:51;16.97;;;8.47;;
16101;SDS011;56411;52.964;10.540;2022-11-23T09:28:19;16.90;;;8.50;;
16101;SDS011;56411;52.964;10.540;2022-11-23T09:30:48;16.83;;;8.07;;
16101;SDS011;56411;52.964;10.540;2022-11-23T09:33:15;18.20;;;7.80;;
16101;SDS011;56411;52.964;10.540;2022-11-23T09:35:44;17.10;;;7.90;;
16101;SDS011;56411;52.964;10.540;2022-11-23T09:38:11;17.80;;;7.60;;
16101;SDS011;56411;52.964;10.540;2022-11-23T09:40:39;16.73;;;8.13;;
16101;SDS011;56411;52.964;10.540;2022-11-23T09:43:11;14.83;;;7.30;;
16101;SDS011;56411;52.964;10.540;2022-11-23T09:45:58;15.07;;;7.87;;
16101;SDS011;56411;52.964;10.540;2022-11-23T09:48:42;16.23;;;6.93;;
16101;SDS011;56411;52.964;10.540;2022-11-23T09:51:21;13.33;;;6.73;;
16101;SDS011;56411;52.964;10.540;2022-11-23T09:53:50;15.73;;;6.50;;
16101;SDS011;56411;52.964;10.540;2022-11-23T09:56:21;17.20;;;6.63;;
16101;SDS011;56411;52.964;10.540;2022-11-23T09:58:53;15.67;;;6.50;;
16101;SDS011;56411;52.964;10.540;2022-11-23T10:01:24;24.47;;;7.10;;
16101;SDS011;56411;52.964;10.540;2022-11-23T10:03:53;13.27;;;6.20;;
16101;SDS011;56411;52.964;10.540;2022-11-23T10:06:26;16.53;;;7.20;;
16101;SDS011;56411;52.964;10.540;2022-11-23T10:08:57;14.73;;;6.50;;
16101;SDS011;56411;52.964;10.540;2022-11-23T10:11:38;14.17;;;5.70;;
16101;SDS011;56411;52.964;10.540;2022-11-23T10:14:29;11.60;;;5.47;;
16101;SDS011;56411;52.964;10.540;2022-11-23T10:17:22;13.00;;;5.20;;
16101;SDS011;56411;52.964;10.540;2022-11-23T10:20:00;11.67;;;5.00;;
16101;SDS011;56411;52.964;10.540;2022-11-23T10:22:50;13.93;;;5.33;;
16101;SDS011;56411;52.964;10.540;2022-11-23T10:25:23;10.93;;;5.27;;
16101;SDS011;56411;52.964;10.540;2022-11-23T10:27:53;13.23;;;4.97;;
16101;SDS011;56411;52.964;10.540;2022-11-23T10:30:25;13.07;;;4.67;;
16101;SDS011;56411;52.964;10.540;2022-11-23T10:32:54;10.93;;;4.50;;
16101;SDS011;56411;52.964;10.540;2022-11-23T10:35:26;10.83;;;4.60;;
16101;SDS011;56411;52.964;10.540;2022-11-23T10:40:42;12.53;;;4.40;;
16101;SDS011;56411;52.964;10.540;2022-11-23T10:43:19;11.43;;;4.40;;
16101;SDS011;56411;52.964;10.540;2022-11-23T10:45:50;11.80;;;5.43;;
16101;SDS011;56411;52.964;10.540;2022-11-23T10:48:38;12.37;;;4.77;;
16101;SDS011;56411;52.964;10.540;2022-11-23T10:51:14;13.57;;;5.40;;
16101;SDS011;56411;52.964;10.540;2022-11-23T10:53:49;11.37;;;4.97;;
16101;SDS011;56411;52.964;10.540;2022-11-23T10:56:18;12.07;;;5.10;;
16101;SDS011;56411;52.964;10.540;2022-11-23T10:58:48;13.37;;;4.50;;
16101;SDS011;56411;52.964;10.540;2022-11-23T11:01:16;10.73;;;4.40;;
16101;SDS011;56411;52.964;10.540;2022-11-23T11:03:47;13.07;;;4.50;;
16101;SDS011;56411;52.964;10.540;2022-11-23T11:06:20;10.90;;;4.37;;
16101;SDS011;56411;52.964;10.540;2022-11-23T11:08:51;10.90;;;4.30;;
16101;SDS011;56411;52.964;10.540;2022-11-23T11:11:20;12.00;;;4.13;;
16101;SDS011;56411;52.964;10.540;2022-11-23T11:13:50;11.17;;;4.43;;
16101;SDS011;56411;52.964;10.540;2022-11-23T11:16:26;12.17;;;4.70;;
16101;SDS011;56411;52.964;10.540;2022-11-23T11:18:56;10.53;;;4.40;;
16101;SDS011;56411;52.964;10.540;2022-11-23T11:21:25;11.80;;;4.63;;
16101;SDS011;56411;52.964;10.540;2022-11-23T11:24:00;13.47;;;5.50;;
16101;SDS011;56411;52.964;10.540;2022-11-23T11:26:29;12.67;;;5.07;;
16101;SDS011;56411;52.964;10.540;2022-11-23T11:28:59;11.27;;;4.97;;
16101;SDS011;56411;52.964;10.540;2022-11-23T11:31:35;9.93;;;4.40;;
16101;SDS011;56411;52.964;10.540;2022-11-23T11:34:13;13.17;;;4.40;;
16101;SDS011;56411;52.964;10.540;2022-11-23T11:36:47;10.13;;;4.70;;
16101;SDS011;56411;52.964;10.540;2022-11-23T11:39:23;12.43;;;4.50;;
16101;SDS011;56411;52.964;10.540;2022-11-23T11:41:54;11.87;;;4.40;;
16101;SDS011;56411;52.964;10.540;2022-11-23T11:44:23;14.13;;;4.33;;
16101;SDS011;56411;52.964;10.540;2022-11-23T11:46:53;9.50;;;4.37;;
16101;SDS011;56411;52.964;10.540;2022-11-23T11:49:25;9.83;;;4.10;;
16101;SDS011;56411;52.964;10.540;2022-11-23T11:51:57;10.37;;;4.20;;
16101;SDS011;56411;52.964;10.540;2022-11-23T11:54:33;11.27;;;4.47;;
16101;SDS011;56411;52.964;10.540;2022-11-23T11:57:09;11.40;;;4.40;;
16101;SDS011;56411;52.964;10.540;2022-11-23T11:59:46;10.73;;;4.00;;
16101;SDS011;56411;52.964;10.540;2022-11-23T12:02:22;10.00;;;4.00;;
16101;SDS011;56411;52.964;10.540;2022-11-23T12:04:59;12.50;;;4.27;;
16101;SDS011;56411;52.964;10.540;2022-11-23T12:07:40;11.77;;;4.33;;
16101;SDS011;56411;52.964;10.540;2022-11-23T12:10:17;14.77;;;4.27;;
16101;SDS011;56411;52.964;10.540;2022-11-23T12:12:50;11.20;;;4.07;;
16101;SDS011;56411;52.964;10.540;2022-11-23T12:15:18;12.17;;;4.60;;
16101;SDS011;56411;52.964;10.540;2022-11-23T12:17:58;10.30;;;4.10;;
16101;SDS011;56411;52.964;10.540;2022-11-23T12:20:42;10.97;;;4.70;;
16101;SDS011;56411;52.964;10.540;2022-11-23T12:23:19;11.27;;;4.23;;
16101;SDS011;56411;52.964;10.540;2022-11-23T12:26:05;11.60;;;4.70;;
16101;SDS011;56411;52.964;10.540;2022-11-23T12:28:47;12.70;;;4.53;;
16101;SDS011;56411;52.964;10.540;2022-11-23T12:31:34;10.27;;;4.40;;
16101;SDS011;56411;52.964;10.540;2022-11-23T12:34:20;11.17;;;4.43;;
16101;SDS011;56411;52.964;10.540;2022-11-23T12:37:19;11.47;;;4.63;;
16101;SDS011;56411;52.964;10.540;2022-11-23T12:40:09;9.30;;;3.80;;
16101;SDS011;56411;52.964;10.540;2022-11-23T12:42:49;10.00;;;3.63;;
16101;SDS011;56411;52.964;10.540;2022-11-23T12:45:28;11.30;;;3.80;;
16101;SDS011;56411;52.964;10.540;2022-11-23T12:51:01;11.37;;;4.40;;
16101;SDS011;56411;52.964;10.540;2022-11-23T12:53:41;12.80;;;3.77;;
16101;SDS011;56411;52.964;10.540;2022-11-23T12:56:23;12.17;;;3.93;;
16101;SDS011;56411;52.964;10.540;2022-11-23T12:59:07;9.40;;;4.00;;
16101;SDS011;56411;52.964;10.540;2022-11-23T13:01:37;11.53;;;5.00;;
16101;SDS011;56411;52.964;10.540;2022-11-23T13:07:36;13.87;;;6.67;;
16101;SDS011;56411;52.964;10.540;2022-11-23T13:10:33;10.30;;;4.30;;
16101;SDS011;56411;52.964;10.540;2022-11-23T13:13:13;11.53;;;5.33;;
16101;SDS011;56411;52.964;10.540;2022-11-23T13:16:09;9.33;;;3.97;;
16101;SDS011;56411;52.964;10.540;2022-11-23T13:18:54;11.25;;;5.45;;
16101;SDS011;56411;52.964;10.540;2022-11-23T13:21:34;11.73;;;4.20;;
16101;SDS011;56411;52.964;10.540;2022-11-23T13:24:20;10.40;;;3.77;;
16101;SDS011;56411;52.964;10.540;2022-11-23T13:27:01;10.63;;;4.40;;
16101;SDS011;56411;52.964;10.540;2022-11-23T13:30:06;12.40;;;5.77;;
16101;SDS011;56411;52.964;10.540;2022-11-23T13:32:54;11.73;;;4.60;;
16101;SDS011;56411;52.964;10.540;2022-11-23T13:38:23;11.07;;;4.30;;
16101;SDS011;56411;52.964;10.540;2022-11-23T13:40:51;11.68;;;5.03;;
16101;SDS011;56411;52.964;10.540;2022-11-23T13:43:22;13.43;;;5.00;;
16101;SDS011;56411;52.964;10.540;2022-11-23T13:48:51;25.60;;;12.93;;
16101;SDS011;56411;52.964;10.540;2022-11-23T13:51:23;21.73;;;10.77;;
16101;SDS011;56411;52.964;10.540;2022-11-23T13:53:53;15.95;;;7.65;;
16101;SDS011;56411;52.964;10.540;2022-11-23T13:56:34;11.70;;;5.33;;
16101;SDS011;56411;52.964;10.540;2022-11-23T13:59:26;13.65;;;6.38;;
16101;SDS011;56411;52.964;10.540;2022-11-23T14:08:18;18.77;;;7.83;;
16101;SDS011;56411;52.964;10.540;2022-11-23T14:10:46;21.17;;;8.30;;
16101;SDS011;56411;52.964;10.540;2022-11-23T14:13:17;27.07;;;10.30;;
16101;SDS011;56411;52.964;10.540;2022-11-23T14:15:53;22.42;;;9.00;;
16101;SDS011;56411;52.964;10.540;2022-11-23T14:18:42;16.77;;;6.67;;
16101;SDS011;56411;52.964;10.540;2022-11-23T14:21:24;12.00;;;4.90;;
16101;SDS011;56411;52.964;10.540;2022-11-23T14:24:08;13.50;;;5.17;;
16101;SDS011;56411;52.964;10.540;2022-11-23T14:26:59;10.80;;;4.47;;
16101;SDS011;56411;52.964;10.540;2022-11-23T14:29:44;12.70;;;4.73;;
16101;SDS011;56411;52.964;10.540;2022-11-23T14:32:31;11.37;;;4.70;;
16101;SDS011;56411;52.964;10.540;2022-11-23T14:35:12;13.13;;;5.10;;
16101;SDS011;56411;52.964;10.540;2022-11-23T14:37:53;14.73;;;4.90;;
16101;SDS011;56411;52.964;10.540;2022-11-23T14:40:28;12.70;;;5.03;;
16101;SDS011;56411;52.964;10.540;2022-11-23T14:43:01;12.83;;;5.20;;
16101;SDS011;56411;52.964;10.540;2022-11-23T14:45:30;11.10;;;5.30;;
16101;SDS011;56411;52.964;10.540;2022-11-23T14:50:53;14.00;;;5.23;;
16101;SDS011;56411;52.964;10.540;2022-11-23T14:53:23;10.93;;;5.20;;
16101;SDS011;56411;52.964;10.540;2022-11-23T14:55:54;14.67;;;5.83;;
16101;SDS011;56411;52.964;10.540;2022-11-23T14:58:21;12.53;;;5.87;;
16101;SDS011;56411;52.964;10.540;2022-11-23T15:00:52;15.87;;;6.20;;
16101;SDS011;56411;52.964;10.540;2022-11-23T15:03:27;13.90;;;5.67;;